Flight Track Log - Related Links

Times and Time Zones

All times are in EDT time to prevent confusion due to time zone crossing. See the N962QS flight status page for this flight to view local times or setup timezone preferences in your user account.

Time Position Orientation Groundspeed Altitude Reporting Facility
EDT Latitude Longitude Course Direction KTS MPH feet Rate Location/Type
Sat 05:58:58 AM 40.8333 -74.3333 270° West 194 223 2,000  Level New York TRACON
Sat 05:59:58 AM 40.7833 -74.3500 194° South 172 198 4,000 2,850 Climbing New York TRACON
Sat 06:00:58 AM 40.7500 -74.4000 229° Southwest 203 234 7,700 3,263 Climbing New York TRACON
Sat 06:02:38 AM 40.7947 -74.5592 290° West 275 316 12,700 2,850 Climbing New York Center
Sat 06:03:38 AM 40.8164 -74.6592 286° West 309 356 15,300 2,600 Climbing New York Center
Sat 06:04:00 AM 40.8833 -75.2810 270° West  Level FlightAware Approximate
Sat 06:04:38 AM 40.8289 -74.7833 278° West 309 356 17,900  Level New York Center
Sat 06:05:38 AM 40.8314 -74.8903 272° West 315 362 19,500 1,400 Climbing New York Center
Sat 06:06:38 AM 40.8356 -75.0114 273° West 325 374 20,700 1,350 Climbing New York Center
Sat 06:07:38 AM 40.8436 -75.1325 275° West 332 382 22,200 1,550 Climbing New York Center
Sat 06:08:38 AM 40.8453 -75.2561 271° West 332 382 23,800 1,550 Climbing New York Center
Sat 06:09:38 AM 40.8486 -75.3825 272° West 343 395 25,300 1,700 Climbing New York Center
Sat 06:10:38 AM 40.8542 -75.5089 273° West 350 403 27,200 1,950 Climbing New York Center
Sat 06:11:38 AM 40.8592 -75.6383 273° West 350 403 29,200 2,000 Climbing New York Center
Sat 06:12:38 AM 40.8706 -75.7681 277° West 350 403 31,200 2,000 Climbing New York Center
Sat 06:13:38 AM 40.8858 -75.8983 279° West 355 409 33,200 2,000 Climbing New York Center
Sat 06:14:38 AM 40.8986 -76.0311 277° West 355 409 35,200 1,850 Climbing New York Center
Sat 06:15:38 AM 40.9158 -76.1614 280° West 361 415 36,900 1,350 Climbing New York Center
Sat 06:16:38 AM 40.9306 -76.2944 278° West 361 415 37,900 1,000 Climbing New York Center
Sat 06:17:38 AM 40.9428 -76.4328 277° West 374 430 38,900 1,000 Climbing New York Center
Sat 06:18:38 AM 40.9581 -76.5853 278° West 379 436 39,900 550 Climbing New York Center
Sat 06:19:38 AM 40.9719 -76.7267 277° West 386 444 40,000 50 Climbing New York Center
Sat 06:20:38 AM 40.9894 -76.8767 279° West 399 459 40,000  Level New York Center
Sat 06:21:38 AM 41.0044 -77.0292 277° West 412 474 40,000  Level New York Center
Sat 06:23:20 AM 41.0300 -77.2800 278° West 432 497 40,000  Level Cleveland Center
Sat 06:24:20 AM 41.0453 -77.4389 277° West 434 499 40,000  Level Cleveland Center
Sat 06:25:21 AM 41.0608 -77.5986 277° West 440 506 40,000  Level Cleveland Center
Sat 06:26:22 AM 41.0744 -77.7589 276° West 440 506 40,000  Level Cleveland Center
Sat 06:27:23 AM 41.0903 -77.9186 278° West 440 506 40,000  Level Cleveland Center
Sat 06:28:23 AM 41.1069 -78.1117 277° West 442 509 40,000  Level Cleveland Center
Sat 06:29:24 AM 41.1194 -78.2519 277° West 442 509 40,000  Level Cleveland Center
Sat 06:30:25 AM 41.1328 -78.4125 276° West 441 507 40,000  Level Cleveland Center
Sat 06:31:26 AM 41.1464 -78.5692 277° West 435 501 40,000  Level Cleveland Center
Sat 06:32:27 AM 41.1606 -78.7289 277° West 438 504 40,000  Level Cleveland Center
Sat 06:33:27 AM 41.1739 -78.8875 276° West 437 503 40,000  Level Cleveland Center
Sat 06:34:28 AM 41.1861 -79.0492 276° West 434 499 40,000  Level Cleveland Center
Sat 06:35:29 AM 41.2014 -79.2356 276° West 429 494 40,000  Level Cleveland Center
Sat 06:36:30 AM 41.2133 -79.3925 276° West 439 505 40,000  Level Cleveland Center
Sat 06:37:31 AM 41.2261 -79.5469 276° West 433 498 40,000  Level Cleveland Center
Sat 06:38:31 AM 41.2386 -79.7056 276° West 429 494 40,000  Level Cleveland Center
Sat 06:39:32 AM 41.2497 -79.8614 275° West 427 491 40,000  Level Cleveland Center
Sat 06:40:33 AM 41.2606 -80.0158 275° West 430 495 40,000  Level Cleveland Center
Sat 06:41:34 AM 41.2733 -80.1733 276° West 433 498 40,000  Level Cleveland Center
Sat 06:42:35 AM 41.2839 -80.3319 275° West 435 501 40,000  Level Cleveland Center
Sat 06:43:36 AM 41.2947 -80.4947 275° West 435 501 40,000  Level Cleveland Center
Sat 06:44:37 AM 41.3058 -80.6564 275° West 437 503 40,000  Level Cleveland Center
Sat 06:45:37 AM 41.3172 -80.8167 275° West 435 501 40,000  Level Cleveland Center
Sat 06:46:38 AM 41.3283 -81.0036 275° West 432 497 40,000  Level Cleveland Center
Sat 06:47:39 AM 41.3392 -81.1614 275° West 429 494 40,000  Level Cleveland Center
Sat 06:48:40 AM 41.3494 -81.3178 275° West 426 490 40,000  Level Cleveland Center
Sat 06:49:41 AM 41.3578 -81.4678 274° West 427 491 40,000  Level Cleveland Center
Sat 06:50:42 AM 41.3661 -81.6239 274° West 427 491 40,000  Level Cleveland Center
Sat 06:51:43 AM 41.3764 -81.7758 275° West 421 484 40,000  Level Cleveland Center
Sat 06:52:44 AM 41.3856 -81.9317 275° West 421 484 40,000  Level Cleveland Center
Sat 06:53:45 AM 41.3942 -82.0931 274° West 421 484 40,000  Level Cleveland Center
Sat 06:54:46 AM 41.4033 -82.2506 274° West 422 486 40,000  Level Cleveland Center
Sat 06:55:47 AM 41.4117 -82.4092 274° West 424 488 40,000  Level Cleveland Center
Sat 06:56:48 AM 41.4192 -82.5678 274° West 425 489 40,000  Level Cleveland Center
Sat 06:57:49 AM 41.4267 -82.7264 274° West 425 489 40,000  Level Cleveland Center
Sat 06:58:50 AM 41.4344 -82.8833 274° West 425 489 40,000  Level Cleveland Center
Sat 06:59:51 AM 41.4425 -83.0419 274° West 424 488 40,000  Level Cleveland Center
Sat 07:00:52 AM 41.4508 -83.2208 274° West 424 488 40,000  Level Cleveland Center
Sat 07:01:53 AM 41.4575 -83.3783 273° West 425 489 40,000  Level Cleveland Center
Sat 07:02:54 AM 41.4642 -83.5375 273° West 425 489 40,000  Level Cleveland Center
Sat 07:03:55 AM 41.4708 -83.6956 273° West 426 490 40,000  Level Cleveland Center
Sat 07:04:56 AM 41.4767 -83.8544 273° West 426 490 40,000  Level Cleveland Center
Sat 07:05:58 AM 41.4831 -84.0128 273° West 426 490 40,000  Level Cleveland Center
Sat 07:06:52 AM 41.4883 -84.1431 273° West 427 491 40,000  Level Chicago Center
Sat 07:07:53 AM 41.4942 -84.3014 273° West 427 491 40,000  Level Chicago Center
Sat 07:08:53 AM 41.4986 -84.4608 272° West 429 494 40,000  Level Chicago Center
Sat 07:09:54 AM 41.5050 -84.6517 273° West 429 494 40,000  Level Chicago Center
Sat 07:10:54 AM 41.5106 -84.8111 273° West 429 494 40,000  Level Chicago Center
Sat 07:11:55 AM 41.5156 -84.9703 272° West 430 495 40,000  Level Chicago Center
Sat 07:12:55 AM 41.5203 -85.1314 272° West 430 495 40,000  Level Chicago Center
Sat 07:13:56 AM 41.5242 -85.2914 272° West 430 495 40,000  Level Chicago Center
Sat 07:14:57 AM 41.5286 -85.4511 272° West 430 495 40,000  Level Chicago Center
Sat 07:15:57 AM 41.5317 -85.5844 272° West 429 494 40,000  Level Chicago Center
Sat 07:16:58 AM 41.5347 -85.7447 272° West 429 494 40,000  Level Chicago Center
Sat 07:17:59 AM 41.5392 -85.9358 272° West 429 494 40,000  Level Chicago Center
Sat 07:18:59 AM 41.5417 -86.0961 271° West 430 495 40,000  Level Chicago Center
Sat 07:20:00 AM 41.5456 -86.2547 272° West 429 494 40,000  Level Chicago Center
Sat 07:21:01 AM 41.5486 -86.4153 272° West 430 495 40,000  Level Chicago Center
Sat 07:22:02 AM 41.5503 -86.5761 271° West 432 497 40,000  Level Chicago Center
Sat 07:23:03 AM 41.5525 -86.7231 271° West 432 497 40,000  Level Chicago Center
Sat 07:24:03 AM 41.5544 -86.8844 271° West 433 498 40,000  Level Chicago Center
Sat 07:25:04 AM 41.5561 -87.0453 271° West 434 499 40,000  Level Chicago Center
Sat 07:26:05 AM 41.5581 -87.2383 271° West 434 499 40,000  Level Chicago Center
Sat 07:27:06 AM 41.5603 -87.3983 271° West 434 499 40,000  Level Chicago Center
Sat 07:28:07 AM 41.5611 -87.5597 270° West 435 501 40,000  Level Chicago Center
Sat 07:29:08 AM 41.5617 -87.7203 270° West 435 501 40,000  Level Chicago Center
Sat 07:30:09 AM 41.5625 -87.8783 270° West 434 499 40,000  Level Chicago Center
Sat 07:31:09 AM 41.5625 -88.0353 270° West 434 499 40,000  Level Chicago Center
Sat 07:32:10 AM 41.5644 -88.1925 271° West 434 499 40,000  Level Chicago Center
Sat 07:33:11 AM 41.5642 -88.3522 270° West 436 502 40,000  Level Chicago Center
Sat 07:34:12 AM 41.5639 -88.5458 270° West 438 504 40,000  Level Chicago Center
Sat 07:35:13 AM 41.5636 -88.7069 270° West 438 504 40,000  Level Chicago Center
Sat 07:36:14 AM 41.5628 -88.8692 270° West 438 504 40,000  Level Chicago Center
Sat 07:37:15 AM 41.5619 -89.0314 270° West 439 505 40,000  Level Chicago Center
Sat 07:38:16 AM 41.5608 -89.1933 270° West 438 504 40,000  Level Chicago Center
Sat 07:39:17 AM 41.5608 -89.3575 270° West 440 506 40,000  Level Chicago Center
Sat 07:40:18 AM 41.5589 -89.5183 269° West 438 504 40,000  Level Chicago Center
Sat 07:41:19 AM 41.5578 -89.6747 270° West 437 503 40,000  Level Chicago Center
Sat 07:42:20 AM 41.5556 -89.8375 269° West 439 505 40,000  Level Chicago Center
Sat 07:43:21 AM 41.5539 -89.9997 269° West 439 505 40,000  Level Chicago Center
Sat 07:44:22 AM 41.5506 -90.1964 269° West 440 506 40,000  Level Chicago Center
Sat 07:45:23 AM 41.5467 -90.3633 268° West 454 522 40,000  Level Chicago Center
Sat 07:46:24 AM 41.5444 -90.5247 269° West 447 514 40,000  Level Chicago Center
Sat 07:47:25 AM 41.5408 -90.7008 268° West 446 513 40,000  Level Chicago Center
Sat 07:48:26 AM 41.5369 -90.8653 268° West 446 513 40,000  Level Chicago Center
Sat 07:49:27 AM 41.5339 -91.0281 269° West 445 512 40,000  Level Chicago Center
Sat 07:50:28 AM 41.5297 -91.1914 268° West 445 512 40,000  Level Chicago Center
Sat 07:51:29 AM 41.5258 -91.3547 268° West 444 511 40,000  Level Chicago Center
Sat 07:52:30 AM 41.5214 -91.5186 268° West 444 511 40,000  Level Chicago Center
Sat 07:53:31 AM 41.5133 -91.6806 266° West 443 510 40,000  Level Chicago Center
Sat 07:54:32 AM 41.4964 -91.8436 262° West 444 511 40,000  Level Chicago Center
Sat 07:55:33 AM 41.4817 -92.0044 263° West 440 506 40,000  Level Chicago Center
Sat 07:56:35 AM 41.4664 -92.1672 263° West 445 512 40,000  Level Chicago Center
Sat 07:57:36 AM 41.4469 -92.3617 262° West 444 511 40,000  Level Chicago Center
Sat 07:58:37 AM 41.4317 -92.5042 262° West 444 511 40,000  Level Chicago Center
Sat 07:59:38 AM 41.4156 -92.6656 262° West 444 511 40,000  Level Chicago Center
Sat 08:00:39 AM 41.3992 -92.8272 262° West 445 512 40,000  Level Chicago Center
Sat 08:01:40 AM 41.3786 -93.0217 262° West 446 513 40,000  Level Chicago Center
Sat 08:02:41 AM 41.3619 -93.1825 262° West 446 513 40,000  Level Chicago Center
Sat 08:03:43 AM 41.3444 -93.3422 262° West 444 511 40,000  Level Chicago Center
Sat 08:04:44 AM 41.3272 -93.5028 262° West 444 511 40,000 49 Level Chicago Center
Sat 08:05:45 AM 41.3097 -93.6628 262° West 444 511 40,100 344 Climbing Chicago Center
Sat 08:06:46 AM 41.2919 -93.8208 262° West 441 507 40,700 541 Climbing Chicago Center
Sat 08:07:47 AM 41.2742 -93.9753 261° West 433 498 41,200 537 Climbing Chicago Center
Sat 08:08:49 AM 41.2531 -94.1603 261° West 427 491 41,800 585 Climbing Chicago Center
Sat 08:09:50 AM 41.2358 -94.3142 262° West 426 490 42,400 541 Climbing Chicago Center
Sat 08:10:51 AM 41.2175 -94.4656 261° West 424 488 42,900 271 Climbing Chicago Center
Sat 08:12:03 AM 41.1958 -94.6444 261° West 422 486 43,000 45 Climbing Minneapolis Center
Sat 08:13:04 AM 41.1783 -94.7994 262° West 422 486 43,000  Level Minneapolis Center
Sat 08:14:05 AM 41.1586 -94.9572 261° West 428 493 43,000  Level Minneapolis Center
Sat 08:15:06 AM 41.1392 -95.1156 261° West 430 495 43,000  Level Minneapolis Center
Sat 08:16:07 AM 41.1189 -95.2736 260° West 430 495 43,000  Level Minneapolis Center
Sat 08:17:08 AM 41.0989 -95.4322 261° West 431 496 43,000  Level Minneapolis Center
Sat 08:18:09 AM 41.0775 -95.5911 260° West 432 497 43,000  Level Minneapolis Center
Sat 08:19:10 AM 41.0569 -95.7497 260° West 432 497 43,000  Level Minneapolis Center
Sat 08:20:10 AM 41.0364 -95.9092 260° West 432 497 43,000  Level Minneapolis Center
Sat 08:21:11 AM 41.0153 -96.0686 260° West 433 498 43,000  Level Minneapolis Center
Sat 08:22:12 AM 40.9953 -96.2278 261° West 433 498 43,000  Level Minneapolis Center
Sat 08:23:13 AM 40.9731 -96.3869 260° West 433 498 43,000  Level Minneapolis Center
Sat 08:24:14 AM 40.9511 -96.5461 260° West 433 498 43,000  Level Minneapolis Center
Sat 08:25:15 AM 40.9247 -96.7372 260° West 434 499 43,000  Level Minneapolis Center
Sat 08:26:16 AM 40.9072 -96.8964 262° West 435 501 43,000  Level Minneapolis Center
Sat 08:27:17 AM 40.8936 -97.0564 264° West 435 501 43,000  Level Minneapolis Center
Sat 08:28:19 AM 40.8778 -97.2164 263° West 435 501 43,000  Level Minneapolis Center
Sat 08:29:20 AM 40.8614 -97.3778 262° West 437 503 43,000  Level Minneapolis Center
Sat 08:30:21 AM 40.8458 -97.5394 263° West 438 504 43,000  Level Minneapolis Center
Sat 08:31:22 AM 40.8303 -97.6997 263° West 438 504 43,000  Level Minneapolis Center
Sat 08:32:23 AM 40.8136 -97.8597 262° West 438 504 43,000  Level Minneapolis Center
Sat 08:33:24 AM 40.7969 -98.0200 262° West 438 504 43,000  Level Minneapolis Center
Sat 08:34:25 AM 40.7800 -98.1800 262° West 438 504 43,000  Level Minneapolis Center
Sat 08:35:26 AM 40.7622 -98.3400 262° West 438 504 43,000  Level Minneapolis Center
Sat 08:36:27 AM 40.7453 -98.5017 262° West 438 504 43,000  Level Minneapolis Center
Sat 08:37:28 AM 40.7272 -98.6631 262° West 439 505 43,000  Level Minneapolis Center
Sat 08:38:30 AM 40.7100 -98.8247 262° West 439 505 43,000  Level Minneapolis Center
Sat 08:39:31 AM 40.6917 -98.9864 262° West 439 505 43,000  Level Minneapolis Center
Sat 08:40:32 AM 40.6719 -99.1472 261° West 439 505 43,000  Level Minneapolis Center
Sat 08:41:02 AM 40.6608 -99.2431 261° West 441 507 43,000  Level Denver Center
Sat 08:42:03 AM 40.6431 -99.4047 262° West 442 509 43,000  Level Denver Center
Sat 08:43:04 AM 40.6236 -99.5636 261° West 441 507 43,000  Level Denver Center
Sat 08:44:04 AM 40.6044 -99.7247 261° West 442 509 43,000  Level Denver Center
Sat 08:45:05 AM 40.5850 -99.8853 261° West 442 509 43,000  Level Denver Center
Sat 08:46:06 AM 40.5661 -100.0375 261° West 442 509 43,000  Level Denver Center
Sat 08:47:06 AM 40.5442 -100.2164 261° West 442 509 43,000  Level Denver Center
Sat 08:48:07 AM 40.5250 -100.3700 261° West 442 509 43,000  Level Denver Center
Sat 08:49:08 AM 40.5053 -100.5233 260° West 442 509 43,000  Level Denver Center
Sat 08:50:08 AM 40.4817 -100.7025 260° West 442 509 43,000  Level Denver Center
Sat 08:51:09 AM 40.4619 -100.8564 260° West 442 509 43,000  Level Denver Center
Sat 08:52:10 AM 40.4428 -101.0100 261° West 442 509 43,000  Level Denver Center
Sat 08:53:10 AM 40.4239 -101.1636 261° West 443 510 43,000  Level Denver Center
Sat 08:54:11 AM 40.4022 -101.3411 261° West 442 509 43,000  Level Denver Center
Sat 08:55:12 AM 40.3828 -101.4936 261° West 442 509 43,000  Level Denver Center
Sat 08:56:12 AM 40.3625 -101.6447 260° West 442 509 43,000  Level Denver Center
Sat 08:57:13 AM 40.3397 -101.8236 261° West 444 511 43,000  Level Denver Center
Sat 08:58:14 AM 40.3200 -101.9769 260° West 445 512 43,000  Level Denver Center
Sat 08:59:15 AM 40.2997 -102.1289 260° West 445 512 43,000  Level Denver Center
Sat 09:00:15 AM 40.2753 -102.3083 260° West 447 514 43,000  Level Denver Center
Sat 09:01:16 AM 40.2544 -102.4611 260° West 446 513 43,000  Level Denver Center
Sat 09:02:17 AM 40.2339 -102.6136 260° West 446 513 43,000  Level Denver Center
Sat 09:03:18 AM 40.2108 -102.7856 260° West 446 513 43,000  Level Denver Center
Sat 09:04:18 AM 40.1875 -102.9436 259° West 445 512 43,000  Level Denver Center
Sat 09:05:19 AM 40.1644 -103.1019 259° West 445 512 43,000  Level Denver Center
Sat 09:06:20 AM 40.1469 -103.2603 262° West 445 512 43,000  Level Denver Center
Sat 09:07:21 AM 40.1369 -103.4214 265° West 445 512 43,000  Level Denver Center
Sat 09:08:21 AM 40.1258 -103.5803 265° West 444 511 43,000  Level Denver Center
Sat 09:09:22 AM 40.1144 -103.7400 265° West 444 511 43,000  Level Denver Center
Sat 09:10:23 AM 40.1025 -103.8989 264° West 444 511 43,000 -541 Level Denver Center
Sat 09:11:24 AM 40.0903 -104.0553 264° West 441 507 41,900 -1,869 Descending Denver Center
Sat 09:12:25 AM 40.0764 -104.2414 264° West 435 501 39,200 -2,529 Descending Denver Center
Sat 09:13:25 AM 40.0639 -104.3983 264° West 435 501 36,800 -2,281 Descending Denver Center
Sat 09:14:26 AM 40.0519 -104.5533 264° West 435 501 34,600 -2,213 Descending Denver Center
Sat 09:15:27 AM 40.0397 -104.7097 264° West 437 503 32,300 -2,262 Descending Denver Center
Sat 09:16:28 AM 40.0322 -104.8636 266° West 434 499 30,000 -2,262 Descending Denver Center
Sat 09:17:29 AM 40.0311 -105.0208 270° West 435 501 27,700 -1,488 Descending Denver Center
Sat 09:18:29 AM 40.0292 -105.1711 269° West 426 490 27,000 -347 Descending Denver Center
Sat 09:19:30 AM 40.0269 -105.3222 269° West 421 484 27,000 -148 Level Denver Center
Sat 09:20:31 AM 40.0242 -105.4736 269° West 420 483 26,700 -1,082 Descending Denver Center
Sat 09:21:32 AM 40.0206 -105.6244 268° West 420 483 24,800 -1,869 Descending Denver Center
Sat 09:22:33 AM 40.0172 -105.8069 269° West 420 483 22,900 -2,132 Descending Denver Center
Sat 09:23:33 AM 40.0139 -105.9553 268° West 414 476 20,500 -2,628 Descending Denver Center
Sat 09:24:34 AM 40.0114 -106.0986 269° West 409 471 17,600 -2,951 Descending Denver Center
Sat 09:25:35 AM 40.0083 -106.2311 268° West 389 448 14,500 -1,770 Descending Denver Center
Sat 09:26:36 AM 40.0053 -106.3433 268° West 347 399 14,000 -295 Descending Denver Center
Sat 09:27:37 AM 40.0000 -106.4258 265° West 275 316 13,900 -99 Descending Denver Center
Sat 09:28:37 AM 39.9578 -106.4606 212° Southwest 211 243 13,800 -50 Descending Denver Center
Sat 09:29:38 AM 39.9006 -106.4847 198° South 208 239 13,800  Level Denver Center
Sat 09:30:39 AM 39.8397 -106.5108 198° South 217 250 13,800 -98 Level Denver Center
Sat 09:31:40 AM 39.7808 -106.5347 197° South 220 253 13,600 -443 Descending Denver Center
Sat 09:32:41 AM 39.7264 -106.5592 199° South 215 247 12,900 -694 Descending Denver Center
Sat 09:33:41 AM 39.6894 -106.5994 220° Southwest 201 231 12,200 -843 Descending Denver Center
Sat 09:34:42 AM 39.6803 -106.6631 259° West 188 216 11,200 -885 Descending Denver Center
Sat 09:35:43 AM 39.6725 -106.7131 259° West 162 186 10,400 -984 Descending Denver Center
Sat 09:36:44 AM 39.6650 -106.7625 259° West 147 169 9,200 -1,180 Descending Denver Center
Sat 09:37:45 AM 39.6572 -106.8144 259° West 147 169 8,000 -984 Descending Denver Center
Sat 09:38:46 AM 39.6494 -106.8633 258° West 145 167 7,200 -787 Descending Denver Center

Login

Don't have an account? Register now (free) for customized features, flight alerts, and more!